createdAt,value
2017-10-19T00:00:27.146Z,9.40
2017-10-19T00:02:54.569Z,9.40
2017-10-19T00:05:21.976Z,9.30
2017-10-19T00:07:49.395Z,9.20
2017-10-19T00:10:16.801Z,9.20
2017-10-19T00:12:44.222Z,9.20
2017-10-19T00:15:11.634Z,9.10
2017-10-19T00:17:39.824Z,9.20
2017-10-19T00:20:07.228Z,9.10
2017-10-19T00:22:34.647Z,9.30
2017-10-19T00:25:02.050Z,9.40
2017-10-19T00:27:29.465Z,9.40
2017-10-19T00:29:56.885Z,9.40
2017-10-19T00:32:25.070Z,9.40
2017-10-19T00:34:53.258Z,9.30
2017-10-19T00:37:20.662Z,9.30
2017-10-19T00:39:48.086Z,9.30
2017-10-19T00:42:15.495Z,9.20
2017-10-19T00:44:43.685Z,9.30
2017-10-19T00:47:11.870Z,9.40
2017-10-19T00:49:39.274Z,9.40
2017-10-19T00:52:06.690Z,9.50
2017-10-19T00:54:34.103Z,9.40
2017-10-19T00:57:01.522Z,9.30
2017-10-19T00:59:28.935Z,9.30
2017-10-19T01:01:57.118Z,9.30
2017-10-19T01:04:25.290Z,9.20
2017-10-19T01:06:52.711Z,9.20
2017-10-19T01:09:20.124Z,9.10
2017-10-19T01:11:47.533Z,9.00
2017-10-19T02:34:28.416Z,8.20
2017-10-19T02:36:55.829Z,8.20
2017-10-19T02:39:23.247Z,8.10
2017-10-19T02:41:50.658Z,8.10
2017-10-19T02:44:18.073Z,8.20
2017-10-19T02:46:46.258Z,8.30
2017-10-19T02:49:13.668Z,8.30
2017-10-19T02:51:41.099Z,8.40
2017-10-19T02:54:08.509Z,8.50
2017-10-19T02:56:36.696Z,8.70
2017-10-19T02:59:04.875Z,8.70
2017-10-19T03:01:32.282Z,8.70
2017-10-19T03:03:59.698Z,8.60
2017-10-19T03:06:27.114Z,8.60
2017-10-19T03:08:54.526Z,8.70
2017-10-19T03:11:21.934Z,8.60
2017-10-19T03:13:50.124Z,8.50
2017-10-19T03:16:18.293Z,8.50
2017-10-19T03:18:46.478Z,8.70
2017-10-19T03:21:13.894Z,8.70
2017-10-19T03:23:41.304Z,8.80
2017-10-19T03:26:08.718Z,8.80
2017-10-19T03:28:36.138Z,8.80
2017-10-19T03:31:03.545Z,8.60
2017-10-19T03:33:31.720Z,8.80
2017-10-19T03:35:59.906Z,8.70
2017-10-19T03:38:27.317Z,8.70
2017-10-19T03:40:54.742Z,8.80
2017-10-19T03:43:22.145Z,8.80
2017-10-19T03:45:49.558Z,8.60
2017-10-19T03:48:16.978Z,8.50
2017-10-19T03:50:45.159Z,8.40
2017-10-19T03:53:12.561Z,8.40
2017-10-19T03:55:39.977Z,8.30
2017-10-19T03:58:07.393Z,8.40
2017-10-19T04:00:34.807Z,8.40
2017-10-19T04:03:02.222Z,8.30
2017-10-19T04:05:30.397Z,8.30
2017-10-19T04:07:58.608Z,8.30
2017-10-19T04:10:26.008Z,8.30
2017-10-19T04:12:53.422Z,8.20
2017-10-19T04:15:20.843Z,8.10
2017-10-19T04:17:49.019Z,8.10
2017-10-19T04:20:17.197Z,8.10
2017-10-19T04:22:44.601Z,8.10
2017-10-19T04:25:12.018Z,8.10
2017-10-19T04:27:39.469Z,8.10
2017-10-19T04:30:06.881Z,8.10
2017-10-19T04:32:34.297Z,8.20
2017-10-19T04:35:01.718Z,8.30
2017-10-19T04:37:29.889Z,8.20
2017-10-19T04:39:57.306Z,8.30
2017-10-19T04:42:24.713Z,8.40
2017-10-19T04:44:52.901Z,8.60
2017-10-19T04:47:20.309Z,8.60
2017-10-19T04:49:47.733Z,8.70
2017-10-19T04:52:15.145Z,8.40
2017-10-19T04:54:43.330Z,8.10
2017-10-19T04:57:11.847Z,8.00
2017-10-19T04:59:40.081Z,8.00
2017-10-19T05:02:08.261Z,7.90
2017-10-19T05:04:36.446Z,7.90
2017-10-19T05:07:03.857Z,7.90
2017-10-19T05:09:31.281Z,8.00
2017-10-19T05:11:58.676Z,8.20
2017-10-19T05:14:26.095Z,8.30
2017-10-19T05:16:53.501Z,8.40
2017-10-19T05:19:21.681Z,8.40
2017-10-19T05:21:49.858Z,8.50
2017-10-19T05:24:18.041Z,8.50
2017-10-19T05:26:45.453Z,8.60
2017-10-19T05:29:12.866Z,8.60
2017-10-19T05:31:40.276Z,8.50
2017-10-19T05:34:08.460Z,8.60
2017-10-19T05:36:35.863Z,8.60
2017-10-19T05:39:03.285Z,8.70
2017-10-19T05:41:31.489Z,8.80
2017-10-19T05:43:58.901Z,8.70
2017-10-19T05:46:26.397Z,8.80
2017-10-19T05:48:53.805Z,8.90
2017-10-19T05:51:21.989Z,8.90
2017-10-19T05:53:49.494Z,8.90
2017-10-19T05:56:16.909Z,8.80
2017-10-19T05:58:45.083Z,8.60
2017-10-19T06:01:12.489Z,8.50
2017-10-19T06:03:39.896Z,8.60
2017-10-19T06:06:08.086Z,8.60
2017-10-19T06:08:36.253Z,8.60
2017-10-19T06:11:04.434Z,8.60
2017-10-19T06:13:31.846Z,8.60
2017-10-19T06:15:59.270Z,8.60
2017-10-19T06:18:26.678Z,8.60
2017-10-19T06:20:54.178Z,8.60
2017-10-19T06:23:21.631Z,8.70
2017-10-19T06:25:49.062Z,8.80
2017-10-19T06:28:16.457Z,9.00
2017-10-19T06:30:43.906Z,9.00
2017-10-19T06:33:11.318Z,9.00
2017-10-19T06:35:38.742Z,9.10
2017-10-19T06:38:06.150Z,9.10
2017-10-19T06:40:34.351Z,9.30
2017-10-19T06:43:01.758Z,9.20
2017-10-19T06:45:29.174Z,9.40
2017-10-19T06:47:56.796Z,9.50
2017-10-19T06:50:24.981Z,9.60
2017-10-19T06:52:52.398Z,9.60
2017-10-19T06:55:20.617Z,10.00
2017-10-19T06:57:48.033Z,10.00
2017-10-19T07:00:15.548Z,10.00
2017-10-19T07:02:42.956Z,10.00
2017-10-19T07:05:10.366Z,10.00
2017-10-19T07:07:37.777Z,10.10
2017-10-19T07:10:05.966Z,10.30
2017-10-19T07:12:33.385Z,10.20
2017-10-19T07:15:00.806Z,10.50
2017-10-19T07:17:28.225Z,10.80
2017-10-19T07:19:56.557Z,11.20
2017-10-19T07:22:23.976Z,11.20
2017-10-19T07:24:51.398Z,11.40
2017-10-19T07:27:18.813Z,11.40
2017-10-19T07:29:46.260Z,11.50
2017-10-19T07:32:13.678Z,11.50
2017-10-19T07:34:41.853Z,11.70
2017-10-19T07:37:10.042Z,11.90
2017-10-19T07:39:37.454Z,11.90
2017-10-19T07:42:04.878Z,12.00
2017-10-19T07:44:32.297Z,12.10
2017-10-19T07:47:00.486Z,12.30
2017-10-19T07:49:27.893Z,12.20
2017-10-19T07:51:56.081Z,12.40
2017-10-19T07:54:23.492Z,12.30
2017-10-19T07:56:50.921Z,12.30
2017-10-19T07:59:19.097Z,12.30
2017-10-19T08:01:46.514Z,12.20
2017-10-19T08:04:14.697Z,12.00
2017-10-19T08:06:42.113Z,12.00
2017-10-19T08:09:09.530Z,11.80
2017-10-19T08:11:37.825Z,11.70
2017-10-19T08:14:05.251Z,11.70
2017-10-19T08:16:33.449Z,11.90
2017-10-19T08:19:00.858Z,11.90
2017-10-19T08:21:29.041Z,12.20
2017-10-19T08:23:56.456Z,12.20
2017-10-19T08:26:23.873Z,12.40
2017-10-19T08:28:52.076Z,12.80
2017-10-19T08:31:19.492Z,12.80
2017-10-19T08:33:47.705Z,13.00
2017-10-19T08:36:15.153Z,13.00
2017-10-19T08:38:42.571Z,13.10
2017-10-19T08:41:09.977Z,13.30
2017-10-19T08:43:37.408Z,13.50
2017-10-19T08:46:05.585Z,14.10
2017-10-19T08:48:33.769Z,14.30
2017-10-19T08:51:01.190Z,14.30
2017-10-19T08:53:28.606Z,14.40
2017-10-19T08:55:56.034Z,14.70
2017-10-19T08:58:23.449Z,15.00
2017-10-19T09:00:50.974Z,15.80
2017-10-19T09:03:18.394Z,17.50
2017-10-19T09:05:46.573Z,20.80
2017-10-19T09:08:14.761Z,22.00
2017-10-19T09:10:42.177Z,21.90
2017-10-19T09:13:09.597Z,22.50
2017-10-19T09:15:37.021Z,22.20
2017-10-19T09:18:04.438Z,22.40
2017-10-19T09:20:31.849Z,23.20
2017-10-19T09:22:59.272Z,24.20
2017-10-19T09:25:27.462Z,26.30
2017-10-19T09:27:54.874Z,26.20
2017-10-19T09:30:22.286Z,26.60
2017-10-19T09:32:49.698Z,26.80
2017-10-19T09:35:17.122Z,27.40
2017-10-19T09:37:44.533Z,27.50
2017-10-19T09:40:12.717Z,26.70
2017-10-19T09:42:40.123Z,26.70
2017-10-19T09:45:07.558Z,25.90
2017-10-19T09:47:34.965Z,26.40
2017-10-19T09:50:03.147Z,27.00
2017-10-19T09:52:31.333Z,27.40
2017-10-19T09:54:59.504Z,27.60
2017-10-19T09:57:26.918Z,27.60
2017-10-19T09:59:54.329Z,28.00
2017-10-19T10:02:21.748Z,28.30
2017-10-19T10:04:49.157Z,27.40
2017-10-19T10:07:16.557Z,26.70
2017-10-19T10:09:43.969Z,24.70
2017-10-19T10:12:11.386Z,24.00
2017-10-19T10:14:39.569Z,24.40
2017-10-19T10:17:06.994Z,24.40
2017-10-19T10:19:34.407Z,23.90
2017-10-19T10:22:01.815Z,23.90
2017-10-19T10:24:30.021Z,23.60
2017-10-19T10:26:57.430Z,23.60
2017-10-19T10:29:24.841Z,23.30
2017-10-19T10:31:52.308Z,24.00
2017-10-19T10:34:19.699Z,24.80
2017-10-19T10:36:47.109Z,25.10
2017-10-19T10:39:14.522Z,26.10
2017-10-19T10:41:41.943Z,27.40
2017-10-19T10:44:09.353Z,27.90
2017-10-19T10:46:37.556Z,27.50
2017-10-19T10:49:04.971Z,27.50
2017-10-19T10:51:33.142Z,27.00
2017-10-19T10:54:01.317Z,26.80
2017-10-19T10:56:29.493Z,26.80
2017-10-19T10:58:57.686Z,27.40
2017-10-19T11:01:25.089Z,27.30
2017-10-19T11:03:52.513Z,27.90
2017-10-19T11:06:19.918Z,28.20
2017-10-19T11:08:47.336Z,27.60
2017-10-19T11:11:14.737Z,26.60
2017-10-19T11:13:42.165Z,26.90
2017-10-19T11:16:09.573Z,27.10
2017-10-19T11:18:36.982Z,26.50
2017-10-19T11:21:04.416Z,26.40
2017-10-19T11:23:31.857Z,25.10
2017-10-19T11:25:59.273Z,25.20
2017-10-19T11:28:26.684Z,24.80
2017-10-19T11:30:54.102Z,24.70
2017-10-19T11:33:22.311Z,24.40
2017-10-19T11:35:49.772Z,24.40
2017-10-19T11:38:17.182Z,24.30
2017-10-19T11:40:44.588Z,24.00
2017-10-19T11:43:12.043Z,24.20
2017-10-19T11:45:39.452Z,24.10
2017-10-19T11:48:07.640Z,24.50
2017-10-19T11:50:35.051Z,24.50
2017-10-19T11:53:02.592Z,25.00
2017-10-19T11:55:30.002Z,24.80
2017-10-19T11:57:58.187Z,24.20
2017-10-19T12:00:26.364Z,24.10
2017-10-19T12:02:53.774Z,24.10
2017-10-19T12:05:21.186Z,23.90
2017-10-19T12:07:48.594Z,24.20
2017-10-19T12:10:16.005Z,24.00
2017-10-19T12:12:43.416Z,24.00
2017-10-19T12:15:10.826Z,23.90
2017-10-19T12:17:38.233Z,24.00
2017-10-19T12:20:06.413Z,24.20
2017-10-19T12:22:34.590Z,24.10
2017-10-19T12:25:02.769Z,23.90
2017-10-19T12:27:30.959Z,24.10
2017-10-19T12:29:58.373Z,24.00
2017-10-19T12:32:25.784Z,24.30
2017-10-19T12:34:53.190Z,24.40
2017-10-19T12:37:20.606Z,24.20
2017-10-19T12:39:48.025Z,24.50
2017-10-19T12:42:16.218Z,24.50
2017-10-19T12:44:43.639Z,24.50
2017-10-19T12:47:11.814Z,24.00
2017-10-19T12:49:39.993Z,24.10
2017-10-19T12:52:08.173Z,23.80
2017-10-19T12:54:36.389Z,23.60
2017-10-19T12:57:03.786Z,23.60
2017-10-19T12:59:31.185Z,23.70
2017-10-19T13:01:58.598Z,23.10
2017-10-19T13:04:26.014Z,22.70
2017-10-19T13:06:53.443Z,22.70
2017-10-19T13:09:20.833Z,22.80
2017-10-19T13:11:48.250Z,23.00
2017-10-19T13:14:15.693Z,23.00
2017-10-19T13:16:43.085Z,23.10
2017-10-19T13:19:10.493Z,23.30
2017-10-19T13:21:38.689Z,22.30
2017-10-19T13:24:06.095Z,22.30
2017-10-19T13:26:33.523Z,21.90
2017-10-19T13:29:00.934Z,21.60
2017-10-19T13:31:28.348Z,21.80
2017-10-19T13:33:55.762Z,22.20
2017-10-19T13:36:23.942Z,22.30
2017-10-19T13:38:52.126Z,22.90
2017-10-19T13:41:19.524Z,22.90
2017-10-19T13:43:46.937Z,23.30
2017-10-19T13:46:14.359Z,23.30
2017-10-19T13:48:41.778Z,22.30
2017-10-19T13:51:09.195Z,22.30
2017-10-19T13:53:37.384Z,21.90
2017-10-19T13:56:04.798Z,21.90
2017-10-19T13:58:32.209Z,22.20
2017-10-19T14:00:59.613Z,22.30
2017-10-19T14:03:27.794Z,22.10
2017-10-19T14:05:55.202Z,22.00
2017-10-19T14:08:22.609Z,21.90
2017-10-19T14:10:50.812Z,21.80
2017-10-19T14:13:18.218Z,21.80
2017-10-19T14:15:45.638Z,21.70
2017-10-19T14:18:13.044Z,21.80
2017-10-19T14:20:40.453Z,21.80
2017-10-19T14:23:07.901Z,21.90
2017-10-19T14:25:35.334Z,22.20
2017-10-19T14:28:02.818Z,22.30
2017-10-19T14:30:30.221Z,22.30
2017-10-19T14:32:57.621Z,22.00
2017-10-19T14:35:25.078Z,22.20
2017-10-19T14:37:52.489Z,22.20
2017-10-19T14:40:19.900Z,22.40
2017-10-19T14:42:47.310Z,22.20
2017-10-19T14:45:15.486Z,22.60
2017-10-19T14:47:43.663Z,23.00
2017-10-19T14:50:11.845Z,22.90
2017-10-19T14:52:39.253Z,22.90
2017-10-19T14:55:06.674Z,22.70
2017-10-19T14:57:34.082Z,22.20
2017-10-19T15:00:01.489Z,22.00
2017-10-19T15:02:28.901Z,22.00
2017-10-19T15:04:56.313Z,21.90
2017-10-19T15:07:23.730Z,21.60
2017-10-19T15:09:51.909Z,21.40
2017-10-19T15:12:20.082Z,21.30
2017-10-19T15:14:48.284Z,21.20
2017-10-19T15:17:15.745Z,21.20
2017-10-19T15:19:43.153Z,21.10
2017-10-19T15:22:10.557Z,21.10
2017-10-19T15:24:37.968Z,21.10
2017-10-19T15:27:06.148Z,21.20
2017-10-19T15:29:34.330Z,21.10
2017-10-19T15:32:02.531Z,21.00
2017-10-19T15:34:29.941Z,21.00
2017-10-19T15:36:58.124Z,21.00
2017-10-19T15:39:26.314Z,20.80
2017-10-19T15:41:53.715Z,20.80
2017-10-19T15:44:21.132Z,20.80
2017-10-19T15:46:48.538Z,20.60
2017-10-19T15:49:16.054Z,20.20
2017-10-19T15:51:43.463Z,19.70
2017-10-19T15:54:10.873Z,19.30
2017-10-19T15:56:38.290Z,19.10
2017-10-19T15:59:06.505Z,19.10
2017-10-19T16:01:33.914Z,19.10
2017-10-19T16:04:02.097Z,18.90
2017-10-19T16:06:30.337Z,18.80
2017-10-19T16:08:57.753Z,18.80
2017-10-19T16:11:25.157Z,18.70
2017-10-19T16:13:52.587Z,18.50
2017-10-19T16:16:19.989Z,18.40
2017-10-19T16:18:48.165Z,17.90
2017-10-19T16:21:16.353Z,17.60
2017-10-19T16:23:44.531Z,17.30
2017-10-19T16:26:11.950Z,17.20
2017-10-19T16:28:39.362Z,17.20
2017-10-19T16:31:06.778Z,17.10
2017-10-19T16:33:34.999Z,17.10
2017-10-19T16:36:02.405Z,17.10
2017-10-19T16:38:29.805Z,17.10
2017-10-19T16:40:57.225Z,16.90
2017-10-19T16:43:25.400Z,16.70
2017-10-19T16:45:53.605Z,16.60
2017-10-19T16:48:21.025Z,16.50
2017-10-19T16:50:48.442Z,16.60
2017-10-19T16:53:15.842Z,16.70
2017-10-19T16:55:44.030Z,16.60
2017-10-19T16:58:12.212Z,16.70
2017-10-19T17:00:39.614Z,16.70
2017-10-19T17:03:07.028Z,16.70
2017-10-19T17:05:34.437Z,16.60
2017-10-19T17:08:01.852Z,16.50
2017-10-19T17:10:29.265Z,16.50
2017-10-19T17:12:57.446Z,16.20
2017-10-19T17:15:25.629Z,16.10
2017-10-19T17:17:53.801Z,16.10
2017-10-19T17:20:21.216Z,16.10
2017-10-19T17:22:48.622Z,16.20
2017-10-19T17:25:16.038Z,16.30
2017-10-19T17:27:43.446Z,16.30
2017-10-19T17:30:10.865Z,16.20
2017-10-19T17:32:38.268Z,16.20
2017-10-19T17:35:05.690Z,16.10
2017-10-19T17:37:33.874Z,15.80
2017-10-19T17:40:01.282Z,15.80
2017-10-19T17:42:28.707Z,15.90
2017-10-19T17:44:56.108Z,16.00
2017-10-19T17:47:23.542Z,16.00
2017-10-19T17:49:50.945Z,15.90
2017-10-19T17:52:19.125Z,15.90
2017-10-19T17:54:46.531Z,15.90
2017-10-19T17:57:13.953Z,16.20
2017-10-19T17:59:41.354Z,16.50
2017-10-19T18:02:08.773Z,16.80
2017-10-19T18:04:36.181Z,17.00
2017-10-19T18:07:03.589Z,17.00
2017-10-19T18:09:30.996Z,16.80
2017-10-19T18:11:58.406Z,16.70
2017-10-19T18:14:25.813Z,16.90
2017-10-19T18:16:53.993Z,17.20
2017-10-19T18:19:22.170Z,17.30
2017-10-19T18:21:50.345Z,17.20
2017-10-19T18:24:18.519Z,17.20
2017-10-19T18:26:46.698Z,17.20
2017-10-19T18:29:14.115Z,17.20
2017-10-19T18:31:41.517Z,17.30
2017-10-19T18:34:08.934Z,17.30
2017-10-19T18:36:36.343Z,17.30
2017-10-19T18:39:03.745Z,17.20
2017-10-19T18:41:31.168Z,17.30
2017-10-19T18:43:59.112Z,17.50
2017-10-19T18:46:26.538Z,17.60
2017-10-19T18:48:54.722Z,17.80
2017-10-19T18:51:22.916Z,17.80
2017-10-19T18:53:50.316Z,17.70
2017-10-19T18:56:17.730Z,17.80
2017-10-19T18:58:45.133Z,17.70
2017-10-19T19:01:12.552Z,17.50
2017-10-19T19:03:39.962Z,17.40
2017-10-19T19:06:08.145Z,17.50
2017-10-19T19:08:36.361Z,17.70
2017-10-19T19:11:03.758Z,17.60
2017-10-19T19:13:31.157Z,17.70
2017-10-19T19:15:58.578Z,17.70
2017-10-19T19:18:25.986Z,17.60
2017-10-19T19:20:53.402Z,17.70
2017-10-19T19:23:21.573Z,18.00
2017-10-19T19:25:49.751Z,18.00
2017-10-19T19:28:17.918Z,18.00
2017-10-19T19:30:46.325Z,18.10
2017-10-19T19:33:13.730Z,18.10
2017-10-19T19:35:41.144Z,18.10
2017-10-19T19:38:08.549Z,18.00
2017-10-19T19:40:35.959Z,18.00
2017-10-19T19:43:03.369Z,18.00
2017-10-19T19:45:31.547Z,18.10
2017-10-19T19:47:58.967Z,18.10
2017-10-19T19:50:26.406Z,18.10
2017-10-19T19:52:53.792Z,18.10
2017-10-19T19:55:21.201Z,18.00
2017-10-19T19:57:48.618Z,18.10
2017-10-19T20:00:16.034Z,18.00
2017-10-19T20:02:43.446Z,18.00
2017-10-19T20:05:11.637Z,17.90
2017-10-19T20:07:39.806Z,17.90
2017-10-19T20:10:07.218Z,17.90
2017-10-19T20:12:34.636Z,17.80
2017-10-19T20:15:02.034Z,17.80
2017-10-19T20:17:29.457Z,17.60
2017-10-19T20:19:56.857Z,17.40
2017-10-19T20:22:24.269Z,17.30
2017-10-19T20:24:51.691Z,17.30
2017-10-19T20:27:19.866Z,17.50
2017-10-19T20:29:48.050Z,17.50
2017-10-19T20:32:15.456Z,17.50
2017-10-19T20:34:42.858Z,17.50
2017-10-19T20:37:10.275Z,17.50
2017-10-19T20:39:37.694Z,17.30
2017-10-19T20:42:05.110Z,17.20
2017-10-19T20:44:33.286Z,17.20
2017-10-19T20:47:01.457Z,17.00
2017-10-19T20:49:29.640Z,16.90
2017-10-19T20:51:57.813Z,16.90
2017-10-19T20:54:25.990Z,16.90
2017-10-19T20:56:53.400Z,16.80
2017-10-19T20:59:20.810Z,16.80
2017-10-19T21:01:48.227Z,16.80
2017-10-19T21:04:15.630Z,16.60
2017-10-19T21:06:43.154Z,16.60
2017-10-19T21:09:11.334Z,16.40
2017-10-19T21:11:39.519Z,16.50
2017-10-19T21:14:07.701Z,16.40
2017-10-19T21:16:35.117Z,16.40
2017-10-19T21:19:02.545Z,16.50
2017-10-19T21:21:29.953Z,16.60
2017-10-19T21:23:58.130Z,16.80
2017-10-19T21:26:26.314Z,16.60
2017-10-19T21:28:53.722Z,16.60
2017-10-19T21:31:21.131Z,16.40
2017-10-19T21:33:48.542Z,16.20
2017-10-19T21:36:15.959Z,16.20
2017-10-19T21:38:43.373Z,16.20
2017-10-19T21:41:11.550Z,16.30
2017-10-19T21:43:39.733Z,16.40
2017-10-19T21:46:07.913Z,16.50
2017-10-19T21:48:35.335Z,16.50
2017-10-19T21:51:02.745Z,16.30
2017-10-19T21:53:30.146Z,16.20
2017-10-19T21:55:57.560Z,16.40
2017-10-19T21:58:24.974Z,16.50
2017-10-19T22:00:53.149Z,16.80
2017-10-19T22:03:21.325Z,16.90
2017-10-19T22:05:49.502Z,17.00
2017-10-19T22:08:17.683Z,17.00
2017-10-19T22:10:45.856Z,16.90
2017-10-19T22:13:14.030Z,16.60
2017-10-19T22:15:42.211Z,16.00
2017-10-19T22:18:10.393Z,15.70
2017-10-19T22:20:37.801Z,15.60
2017-10-19T22:23:05.223Z,15.50
2017-10-19T22:25:32.638Z,15.60
2017-10-19T22:28:00.824Z,15.60
2017-10-19T22:30:29.002Z,15.70
2017-10-19T22:32:56.410Z,15.70
2017-10-19T22:35:23.834Z,15.80
2017-10-19T22:37:51.243Z,15.80
2017-10-19T22:40:18.660Z,15.70
2017-10-19T22:42:46.076Z,15.80
2017-10-19T22:45:14.253Z,16.30
2017-10-19T22:47:41.661Z,16.20
2017-10-19T22:50:09.077Z,16.30
2017-10-19T22:52:36.488Z,16.20
2017-10-19T22:55:03.899Z,16.00
2017-10-19T22:57:31.306Z,16.00
2017-10-19T22:59:58.716Z,16.00
2017-10-19T23:02:26.137Z,16.10
2017-10-19T23:04:59.081Z,16.40
2017-10-19T23:07:26.483Z,16.40
2017-10-19T23:09:53.902Z,16.60
2017-10-19T23:12:21.310Z,16.60
2017-10-19T23:14:48.725Z,16.70
2017-10-19T23:17:16.132Z,16.80
2017-10-19T23:19:43.554Z,16.90
2017-10-19T23:22:11.735Z,17.00
2017-10-19T23:24:39.915Z,17.10
2017-10-19T23:27:08.249Z,17.10
2017-10-19T23:29:35.772Z,17.10
2017-10-19T23:32:03.188Z,17.10
2017-10-19T23:34:31.366Z,17.20
2017-10-19T23:36:59.543Z,17.20
2017-10-19T23:39:27.727Z,17.20
2017-10-19T23:41:55.130Z,17.20
2017-10-19T23:44:22.546Z,17.20
2017-10-19T23:46:49.956Z,17.20
2017-10-19T23:49:17.476Z,17.20
2017-10-19T23:51:44.885Z,17.20
2017-10-19T23:54:12.380Z,17.20
2017-10-19T23:56:39.793Z,17.00
2017-10-19T23:59:07.312Z,16.80
